If you wish to contribute or participate in the discussions about articles you are invited to join SKYbrary as a registered user

 Actions

Las Higueras Airport

From SKYbrary Wiki

SAOC
Airport
ICAO: SAOC – IATA: RCU
Summary
Name Las Higueras Airport
Region South America and Caribbean
Territory Argentina AR.gif
Location Rio Cuarto, Cordoba
Serving Rio Cuarto
Elevation 420.624 m
1,380 ft
1,380 ft420.624 m
Type medium airport
Coordinates 33° 5' 6.46" S, 64° 15' 40.73" W
Runways
Designator Length Width Surface ROPS
18/36 2075 m6,807.743 ft
40 m131.234 ft
ASP /
5/23 2265 m7,431.102 ft
45 m147.638 ft
ASP /


METAR
Observation SAOC 231300Z 18008KT CAVOK 18/08 Q1019 RMK ESTIMATED
Station Rio Cuarto Aerodrome
Date/Time 23 October 2019 13:00:00
Wind direction 180°
Wind speed 08 kts
Lowest cloud amount clouds and visibility OK
Temperature 18°C
Dew point 8°C
Humidity 52%
QNH 1019 hPa
Weather condition n/a

Airport serving Rio Cuarto, Cordoba, Argentina

Climatology

Humid Sub-tropical climate (Köppen climate classification Cfa).

Maps

Terrain

Loading map...

Airport Layout

Loading map...


Accidents & Serious Incidents at or in vicinity of SAOC

None on SKYbrary